sensor_id;sensor_type;location;lat;lon;timestamp;P1;durP1;ratioP1;P2;durP2;ratioP2
68989;SDS011;56046;47.270;11.368;2023-07-09T00:02:00;8.25;;;3.85;;
68989;SDS011;56046;47.270;11.368;2023-07-09T00:04:26;8.77;;;4.03;;
68989;SDS011;56046;47.270;11.368;2023-07-09T00:06:53;8.03;;;3.40;;
68989;SDS011;56046;47.270;11.368;2023-07-09T00:09:20;9.10;;;3.58;;
68989;SDS011;56046;47.270;11.368;2023-07-09T00:11:45;7.70;;;3.50;;
68989;SDS011;56046;47.270;11.368;2023-07-09T00:14:11;9.30;;;4.00;;
68989;SDS011;56046;47.270;11.368;2023-07-09T00:16:37;10.00;;;4.47;;
68989;SDS011;56046;47.270;11.368;2023-07-09T00:19:03;7.30;;;3.70;;
68989;SDS011;56046;47.270;11.368;2023-07-09T00:21:29;8.73;;;3.90;;
68989;SDS011;56046;47.270;11.368;2023-07-09T00:23:59;9.07;;;3.23;;
68989;SDS011;56046;47.270;11.368;2023-07-09T00:26:29;8.20;;;3.50;;
68989;SDS011;56046;47.270;11.368;2023-07-09T00:28:55;9.73;;;3.58;;
68989;SDS011;56046;47.270;11.368;2023-07-09T00:31:21;7.60;;;4.00;;
68989;SDS011;56046;47.270;11.368;2023-07-09T00:33:46;7.23;;;3.73;;
68989;SDS011;56046;47.270;11.368;2023-07-09T00:36:16;7.63;;;3.83;;
68989;SDS011;56046;47.270;11.368;2023-07-09T00:38:41;8.13;;;3.70;;
68989;SDS011;56046;47.270;11.368;2023-07-09T00:41:19;7.47;;;3.88;;
68989;SDS011;56046;47.270;11.368;2023-07-09T00:43:45;7.47;;;3.50;;
68989;SDS011;56046;47.270;11.368;2023-07-09T00:48:42;8.45;;;3.60;;
68989;SDS011;56046;47.270;11.368;2023-07-09T00:51:12;9.63;;;3.38;;
68989;SDS011;56046;47.270;11.368;2023-07-09T00:53:38;7.40;;;3.45;;
68989;SDS011;56046;47.270;11.368;2023-07-09T00:56:11;9.60;;;3.73;;
68989;SDS011;56046;47.270;11.368;2023-07-09T00:58:39;9.45;;;3.88;;
68989;SDS011;56046;47.270;11.368;2023-07-09T01:01:08;9.02;;;3.50;;
68989;SDS011;56046;47.270;11.368;2023-07-09T01:03:45;7.93;;;3.80;;
68989;SDS011;56046;47.270;11.368;2023-07-09T01:06:12;7.60;;;3.80;;
68989;SDS011;56046;47.270;11.368;2023-07-09T01:08:39;7.00;;;3.93;;
68989;SDS011;56046;47.270;11.368;2023-07-09T01:11:15;9.23;;;4.00;;
68989;SDS011;56046;47.270;11.368;2023-07-09T01:13:40;7.78;;;3.40;;
68989;SDS011;56046;47.270;11.368;2023-07-09T01:16:05;8.97;;;4.10;;
68989;SDS011;56046;47.270;11.368;2023-07-09T01:18:30;7.37;;;3.70;;
68989;SDS011;56046;47.270;11.368;2023-07-09T01:21:01;9.85;;;4.38;;
68989;SDS011;56046;47.270;11.368;2023-07-09T01:23:27;8.10;;;3.50;;
68989;SDS011;56046;47.270;11.368;2023-07-09T01:25:52;11.53;;;4.00;;
68989;SDS011;56046;47.270;11.368;2023-07-09T01:28:19;8.87;;;3.40;;
68989;SDS011;56046;47.270;11.368;2023-07-09T01:30:45;8.80;;;3.42;;
68989;SDS011;56046;47.270;11.368;2023-07-09T01:33:11;7.57;;;4.00;;
68989;SDS011;56046;47.270;11.368;2023-07-09T01:35:37;8.07;;;3.57;;
68989;SDS011;56046;47.270;11.368;2023-07-09T01:38:02;7.93;;;3.58;;
68989;SDS011;56046;47.270;11.368;2023-07-09T01:40:29;7.47;;;3.87;;
68989;SDS011;56046;47.270;11.368;2023-07-09T01:42:54;9.03;;;3.97;;
68989;SDS011;56046;47.270;11.368;2023-07-09T01:45:20;9.17;;;3.90;;
68989;SDS011;56046;47.270;11.368;2023-07-09T01:47:45;9.07;;;4.20;;
68989;SDS011;56046;47.270;11.368;2023-07-09T01:50:11;7.23;;;3.93;;
68989;SDS011;56046;47.270;11.368;2023-07-09T01:52:37;8.60;;;4.30;;
68989;SDS011;56046;47.270;11.368;2023-07-09T01:55:04;10.90;;;4.63;;
68989;SDS011;56046;47.270;11.368;2023-07-09T01:57:29;8.52;;;4.03;;
68989;SDS011;56046;47.270;11.368;2023-07-09T02:00:02;8.70;;;3.90;;
68989;SDS011;56046;47.270;11.368;2023-07-09T02:02:29;9.98;;;4.32;;
68989;SDS011;56046;47.270;11.368;2023-07-09T02:04:55;9.50;;;4.20;;
68989;SDS011;56046;47.270;11.368;2023-07-09T02:07:21;9.90;;;4.10;;
68989;SDS011;56046;47.270;11.368;2023-07-09T02:09:46;9.10;;;4.05;;
68989;SDS011;56046;47.270;11.368;2023-07-09T02:12:12;8.43;;;3.93;;
68989;SDS011;56046;47.270;11.368;2023-07-09T02:14:38;7.57;;;4.32;;
68989;SDS011;56046;47.270;11.368;2023-07-09T02:17:03;8.30;;;3.85;;
68989;SDS011;56046;47.270;11.368;2023-07-09T02:19:29;10.10;;;3.97;;
68989;SDS011;56046;47.270;11.368;2023-07-09T02:21:55;8.57;;;4.07;;
68989;SDS011;56046;47.270;11.368;2023-07-09T02:24:20;9.17;;;4.10;;
68989;SDS011;56046;47.270;11.368;2023-07-09T02:26:49;7.57;;;3.85;;
68989;SDS011;56046;47.270;11.368;2023-07-09T02:29:14;8.40;;;3.53;;
68989;SDS011;56046;47.270;11.368;2023-07-09T02:31:40;8.17;;;4.00;;
68989;SDS011;56046;47.270;11.368;2023-07-09T02:34:05;8.17;;;3.70;;
68989;SDS011;56046;47.270;11.368;2023-07-09T02:36:30;8.63;;;3.67;;
68989;SDS011;56046;47.270;11.368;2023-07-09T02:38:55;9.37;;;4.03;;
68989;SDS011;56046;47.270;11.368;2023-07-09T02:41:21;9.20;;;4.43;;
68989;SDS011;56046;47.270;11.368;2023-07-09T02:43:46;9.73;;;3.83;;
68989;SDS011;56046;47.270;11.368;2023-07-09T02:46:11;7.60;;;3.80;;
68989;SDS011;56046;47.270;11.368;2023-07-09T02:48:36;8.53;;;3.77;;
68989;SDS011;56046;47.270;11.368;2023-07-09T02:51:02;7.73;;;3.73;;
68989;SDS011;56046;47.270;11.368;2023-07-09T02:53:27;7.50;;;3.77;;
68989;SDS011;56046;47.270;11.368;2023-07-09T02:55:52;8.13;;;4.00;;
68989;SDS011;56046;47.270;11.368;2023-07-09T02:58:17;8.03;;;4.00;;
68989;SDS011;56046;47.270;11.368;2023-07-09T03:00:42;8.17;;;3.67;;
68989;SDS011;56046;47.270;11.368;2023-07-09T03:03:08;8.30;;;3.60;;
68989;SDS011;56046;47.270;11.368;2023-07-09T03:05:33;8.67;;;3.33;;
68989;SDS011;56046;47.270;11.368;2023-07-09T03:07:58;7.73;;;3.80;;
68989;SDS011;56046;47.270;11.368;2023-07-09T03:10:24;8.27;;;3.80;;
68989;SDS011;56046;47.270;11.368;2023-07-09T03:12:49;10.40;;;3.93;;
68989;SDS011;56046;47.270;11.368;2023-07-09T03:15:14;8.90;;;3.57;;
68989;SDS011;56046;47.270;11.368;2023-07-09T03:17:39;7.40;;;3.20;;
68989;SDS011;56046;47.270;11.368;2023-07-09T03:20:05;9.07;;;4.00;;
68989;SDS011;56046;47.270;11.368;2023-07-09T03:22:30;6.87;;;3.60;;
68989;SDS011;56046;47.270;11.368;2023-07-09T03:24:55;7.87;;;3.83;;
68989;SDS011;56046;47.270;11.368;2023-07-09T03:27:21;9.23;;;4.43;;
68989;SDS011;56046;47.270;11.368;2023-07-09T03:29:46;7.50;;;3.80;;
68989;SDS011;56046;47.270;11.368;2023-07-09T03:32:11;7.63;;;3.80;;
68989;SDS011;56046;47.270;11.368;2023-07-09T03:34:36;8.30;;;3.90;;
68989;SDS011;56046;47.270;11.368;2023-07-09T03:37:02;7.70;;;3.90;;
68989;SDS011;56046;47.270;11.368;2023-07-09T03:39:27;7.23;;;3.53;;
68989;SDS011;56046;47.270;11.368;2023-07-09T03:41:52;9.43;;;3.73;;
68989;SDS011;56046;47.270;11.368;2023-07-09T03:44:17;9.23;;;4.00;;
68989;SDS011;56046;47.270;11.368;2023-07-09T03:46:43;8.00;;;4.30;;
68989;SDS011;56046;47.270;11.368;2023-07-09T03:49:08;8.80;;;4.00;;
68989;SDS011;56046;47.270;11.368;2023-07-09T03:51:33;8.60;;;3.83;;
68989;SDS011;56046;47.270;11.368;2023-07-09T03:53:59;7.90;;;3.73;;
68989;SDS011;56046;47.270;11.368;2023-07-09T03:56:24;9.10;;;4.00;;
68989;SDS011;56046;47.270;11.368;2023-07-09T03:58:49;7.90;;;3.60;;
68989;SDS011;56046;47.270;11.368;2023-07-09T04:01:15;8.43;;;3.93;;
68989;SDS011;56046;47.270;11.368;2023-07-09T04:03:41;9.30;;;4.00;;
68989;SDS011;56046;47.270;11.368;2023-07-09T04:06:06;10.20;;;3.70;;
68989;SDS011;56046;47.270;11.368;2023-07-09T04:08:31;11.23;;;4.03;;
68989;SDS011;56046;47.270;11.368;2023-07-09T04:11:00;9.07;;;3.90;;
68989;SDS011;56046;47.270;11.368;2023-07-09T04:13:26;7.93;;;4.15;;
68989;SDS011;56046;47.270;11.368;2023-07-09T04:15:53;7.57;;;3.80;;
68989;SDS011;56046;47.270;11.368;2023-07-09T04:18:18;8.18;;;4.10;;
68989;SDS011;56046;47.270;11.368;2023-07-09T04:20:45;8.30;;;3.57;;
68989;SDS011;56046;47.270;11.368;2023-07-09T04:23:12;12.07;;;4.00;;
68989;SDS011;56046;47.270;11.368;2023-07-09T04:25:37;11.10;;;4.13;;
68989;SDS011;56046;47.270;11.368;2023-07-09T04:28:03;7.97;;;3.40;;
68989;SDS011;56046;47.270;11.368;2023-07-09T04:30:28;8.53;;;3.60;;
68989;SDS011;56046;47.270;11.368;2023-07-09T04:32:54;7.85;;;3.53;;
68989;SDS011;56046;47.270;11.368;2023-07-09T04:35:19;10.33;;;4.40;;
68989;SDS011;56046;47.270;11.368;2023-07-09T04:37:44;8.43;;;4.23;;
68989;SDS011;56046;47.270;11.368;2023-07-09T04:40:11;12.17;;;4.00;;
68989;SDS011;56046;47.270;11.368;2023-07-09T04:42:37;11.27;;;4.50;;
68989;SDS011;56046;47.270;11.368;2023-07-09T04:45:03;7.95;;;4.03;;
68989;SDS011;56046;47.270;11.368;2023-07-09T04:47:29;7.97;;;3.93;;
68989;SDS011;56046;47.270;11.368;2023-07-09T04:49:54;8.00;;;4.20;;
68989;SDS011;56046;47.270;11.368;2023-07-09T04:52:19;9.37;;;4.33;;
68989;SDS011;56046;47.270;11.368;2023-07-09T04:54:46;8.00;;;4.35;;
68989;SDS011;56046;47.270;11.368;2023-07-09T04:57:12;9.40;;;4.43;;
68989;SDS011;56046;47.270;11.368;2023-07-09T04:59:37;7.50;;;4.00;;
68989;SDS011;56046;47.270;11.368;2023-07-09T05:02:02;7.17;;;4.20;;
68989;SDS011;56046;47.270;11.368;2023-07-09T05:04:28;7.85;;;4.22;;
68989;SDS011;56046;47.270;11.368;2023-07-09T05:06:54;7.70;;;4.23;;
68989;SDS011;56046;47.270;11.368;2023-07-09T05:09:19;8.53;;;4.23;;
68989;SDS011;56046;47.270;11.368;2023-07-09T05:11:44;8.13;;;3.70;;
68989;SDS011;56046;47.270;11.368;2023-07-09T05:14:09;7.90;;;4.63;;
68989;SDS011;56046;47.270;11.368;2023-07-09T05:16:35;7.93;;;4.80;;
68989;SDS011;56046;47.270;11.368;2023-07-09T05:19:00;9.03;;;4.80;;
68989;SDS011;56046;47.270;11.368;2023-07-09T05:21:25;10.47;;;4.60;;
68989;SDS011;56046;47.270;11.368;2023-07-09T05:23:51;8.00;;;4.97;;
68989;SDS011;56046;47.270;11.368;2023-07-09T05:26:16;7.90;;;4.33;;
68989;SDS011;56046;47.270;11.368;2023-07-09T05:28:41;8.80;;;4.40;;
68989;SDS011;56046;47.270;11.368;2023-07-09T05:31:06;6.60;;;4.20;;
68989;SDS011;56046;47.270;11.368;2023-07-09T05:33:32;8.60;;;4.50;;
68989;SDS011;56046;47.270;11.368;2023-07-09T05:35:57;9.30;;;5.23;;
68989;SDS011;56046;47.270;11.368;2023-07-09T05:38:22;10.63;;;4.80;;
68989;SDS011;56046;47.270;11.368;2023-07-09T05:40:47;8.23;;;4.70;;
68989;SDS011;56046;47.270;11.368;2023-07-09T05:43:13;10.20;;;4.50;;
68989;SDS011;56046;47.270;11.368;2023-07-09T05:45:39;10.93;;;4.97;;
68989;SDS011;56046;47.270;11.368;2023-07-09T05:48:04;9.40;;;4.67;;
68989;SDS011;56046;47.270;11.368;2023-07-09T05:50:32;11.20;;;5.20;;
68989;SDS011;56046;47.270;11.368;2023-07-09T05:52:57;9.15;;;5.22;;
68989;SDS011;56046;47.270;11.368;2023-07-09T05:55:22;8.47;;;4.83;;
68989;SDS011;56046;47.270;11.368;2023-07-09T05:57:48;9.53;;;4.90;;
68989;SDS011;56046;47.270;11.368;2023-07-09T06:00:13;9.00;;;4.83;;
68989;SDS011;56046;47.270;11.368;2023-07-09T06:02:39;12.48;;;5.10;;
68989;SDS011;56046;47.270;11.368;2023-07-09T06:05:05;10.73;;;5.20;;
68989;SDS011;56046;47.270;11.368;2023-07-09T06:07:30;8.23;;;4.85;;
68989;SDS011;56046;47.270;11.368;2023-07-09T06:09:56;9.73;;;5.10;;
68989;SDS011;56046;47.270;11.368;2023-07-09T06:12:22;9.70;;;4.80;;
68989;SDS011;56046;47.270;11.368;2023-07-09T06:14:48;9.43;;;5.07;;
68989;SDS011;56046;47.270;11.368;2023-07-09T06:17:13;8.53;;;4.20;;
68989;SDS011;56046;47.270;11.368;2023-07-09T06:19:38;9.97;;;5.03;;
68989;SDS011;56046;47.270;11.368;2023-07-09T06:22:04;8.33;;;4.80;;
68989;SDS011;56046;47.270;11.368;2023-07-09T06:24:29;9.33;;;5.27;;
68989;SDS011;56046;47.270;11.368;2023-07-09T06:26:54;9.60;;;4.77;;
68989;SDS011;56046;47.270;11.368;2023-07-09T06:29:19;10.48;;;5.28;;
68989;SDS011;56046;47.270;11.368;2023-07-09T06:31:45;7.67;;;4.63;;
68989;SDS011;56046;47.270;11.368;2023-07-09T06:34:10;8.53;;;4.93;;
68989;SDS011;56046;47.270;11.368;2023-07-09T06:36:35;8.20;;;5.00;;
68989;SDS011;56046;47.270;11.368;2023-07-09T06:39:01;9.20;;;5.13;;
68989;SDS011;56046;47.270;11.368;2023-07-09T06:41:26;9.13;;;4.95;;
68989;SDS011;56046;47.270;11.368;2023-07-09T06:43:52;8.20;;;4.70;;
68989;SDS011;56046;47.270;11.368;2023-07-09T06:46:18;10.43;;;5.40;;
68989;SDS011;56046;47.270;11.368;2023-07-09T06:48:44;9.23;;;4.97;;
68989;SDS011;56046;47.270;11.368;2023-07-09T06:51:09;8.77;;;4.87;;
68989;SDS011;56046;47.270;11.368;2023-07-09T06:53:35;8.93;;;4.90;;
68989;SDS011;56046;47.270;11.368;2023-07-09T06:56:01;9.27;;;4.47;;
68989;SDS011;56046;47.270;11.368;2023-07-09T06:58:27;9.47;;;4.50;;
68989;SDS011;56046;47.270;11.368;2023-07-09T07:00:56;8.70;;;4.30;;
68989;SDS011;56046;47.270;11.368;2023-07-09T07:03:22;8.27;;;4.50;;
68989;SDS011;56046;47.270;11.368;2023-07-09T07:05:49;8.27;;;4.80;;
68989;SDS011;56046;47.270;11.368;2023-07-09T07:08:15;7.85;;;4.75;;
68989;SDS011;56046;47.270;11.368;2023-07-09T07:10:41;8.55;;;4.70;;
68989;SDS011;56046;47.270;11.368;2023-07-09T07:13:06;8.20;;;4.40;;
68989;SDS011;56046;47.270;11.368;2023-07-09T07:15:31;9.13;;;5.07;;
68989;SDS011;56046;47.270;11.368;2023-07-09T07:17:56;7.67;;;4.60;;
68989;SDS011;56046;47.270;11.368;2023-07-09T07:20:22;8.52;;;5.05;;
68989;SDS011;56046;47.270;11.368;2023-07-09T07:22:47;8.17;;;4.63;;
68989;SDS011;56046;47.270;11.368;2023-07-09T07:25:13;8.37;;;4.70;;
68989;SDS011;56046;47.270;11.368;2023-07-09T07:27:38;8.73;;;5.07;;
68989;SDS011;56046;47.270;11.368;2023-07-09T07:30:04;8.17;;;4.67;;
68989;SDS011;56046;47.270;11.368;2023-07-09T07:32:29;10.15;;;4.82;;
68989;SDS011;56046;47.270;11.368;2023-07-09T07:34:55;8.47;;;5.43;;
68989;SDS011;56046;47.270;11.368;2023-07-09T07:37:20;9.03;;;5.30;;
68989;SDS011;56046;47.270;11.368;2023-07-09T07:39:46;8.57;;;4.95;;
68989;SDS011;56046;47.270;11.368;2023-07-09T07:42:11;8.90;;;4.80;;
68989;SDS011;56046;47.270;11.368;2023-07-09T07:44:37;7.80;;;4.43;;
68989;SDS011;56046;47.270;11.368;2023-07-09T07:47:02;9.57;;;4.90;;
68989;SDS011;56046;47.270;11.368;2023-07-09T07:49:28;7.73;;;4.00;;
68989;SDS011;56046;47.270;11.368;2023-07-09T07:51:53;10.75;;;4.68;;
68989;SDS011;56046;47.270;11.368;2023-07-09T07:54:18;8.77;;;4.40;;
68989;SDS011;56046;47.270;11.368;2023-07-09T07:56:44;8.80;;;4.37;;
68989;SDS011;56046;47.270;11.368;2023-07-09T07:59:09;6.17;;;3.40;;
68989;SDS011;56046;47.270;11.368;2023-07-09T08:01:34;11.00;;;4.77;;
68989;SDS011;56046;47.270;11.368;2023-07-09T08:04:01;10.20;;;4.95;;
68989;SDS011;56046;47.270;11.368;2023-07-09T08:06:26;8.30;;;4.80;;
68989;SDS011;56046;47.270;11.368;2023-07-09T08:08:52;10.50;;;5.20;;
68989;SDS011;56046;47.270;11.368;2023-07-09T08:11:17;7.90;;;4.53;;
68989;SDS011;56046;47.270;11.368;2023-07-09T08:13:42;10.70;;;4.70;;
68989;SDS011;56046;47.270;11.368;2023-07-09T08:16:08;8.37;;;4.77;;
68989;SDS011;56046;47.270;11.368;2023-07-09T08:18:33;7.17;;;3.93;;
68989;SDS011;56046;47.270;11.368;2023-07-09T08:20:59;6.25;;;4.25;;
68989;SDS011;56046;47.270;11.368;2023-07-09T08:23:24;8.07;;;4.10;;
68989;SDS011;56046;47.270;11.368;2023-07-09T08:25:53;7.53;;;4.00;;
68989;SDS011;56046;47.270;11.368;2023-07-09T08:28:19;9.68;;;4.53;;
68989;SDS011;56046;47.270;11.368;2023-07-09T08:30:44;9.67;;;4.73;;
68989;SDS011;56046;47.270;11.368;2023-07-09T08:33:10;8.45;;;4.88;;
68989;SDS011;56046;47.270;11.368;2023-07-09T08:35:35;6.50;;;3.93;;
68989;SDS011;56046;47.270;11.368;2023-07-09T08:38:00;7.97;;;4.67;;
68989;SDS011;56046;47.270;11.368;2023-07-09T08:40:26;6.47;;;3.60;;
68989;SDS011;56046;47.270;11.368;2023-07-09T08:42:52;7.50;;;4.35;;
68989;SDS011;56046;47.270;11.368;2023-07-09T08:45:24;8.33;;;4.33;;
68989;SDS011;56046;47.270;11.368;2023-07-09T08:50:24;9.63;;;4.78;;
68989;SDS011;56046;47.270;11.368;2023-07-09T08:52:54;8.00;;;4.30;;
68989;SDS011;56046;47.270;11.368;2023-07-09T08:55:23;8.55;;;4.32;;
68989;SDS011;56046;47.270;11.368;2023-07-09T08:57:51;8.73;;;4.07;;
68989;SDS011;56046;47.270;11.368;2023-07-09T09:00:18;8.77;;;4.45;;
68989;SDS011;56046;47.270;11.368;2023-07-09T09:02:56;9.23;;;5.15;;
68989;SDS011;56046;47.270;11.368;2023-07-09T09:05:23;8.52;;;4.60;;
68989;SDS011;56046;47.270;11.368;2023-07-09T09:07:56;7.60;;;4.68;;
68989;SDS011;56046;47.270;11.368;2023-07-09T09:10:27;8.43;;;4.23;;
68989;SDS011;56046;47.270;11.368;2023-07-09T09:13:13;8.75;;;4.45;;
68989;SDS011;56046;47.270;11.368;2023-07-09T09:15:40;8.20;;;4.45;;
68989;SDS011;56046;47.270;11.368;2023-07-09T09:20:38;7.43;;;4.47;;
68989;SDS011;56046;47.270;11.368;2023-07-09T09:25:34;8.80;;;4.00;;
68989;SDS011;56046;47.270;11.368;2023-07-09T09:28:00;8.65;;;4.60;;
68989;SDS011;56046;47.270;11.368;2023-07-09T09:30:27;8.27;;;4.40;;
68989;SDS011;56046;47.270;11.368;2023-07-09T09:32:55;8.00;;;4.78;;
68989;SDS011;56046;47.270;11.368;2023-07-09T09:35:25;8.23;;;4.70;;
68989;SDS011;56046;47.270;11.368;2023-07-09T09:37:51;7.22;;;4.25;;
68989;SDS011;56046;47.270;11.368;2023-07-09T09:40:18;8.10;;;4.85;;
68989;SDS011;56046;47.270;11.368;2023-07-09T09:42:47;7.55;;;4.65;;
68989;SDS011;56046;47.270;11.368;2023-07-09T09:45:14;7.77;;;4.47;;
68989;SDS011;56046;47.270;11.368;2023-07-09T09:47:40;10.52;;;3.88;;
68989;SDS011;56046;47.270;11.368;2023-07-09T09:50:05;7.83;;;4.10;;
68989;SDS011;56046;47.270;11.368;2023-07-09T09:52:30;7.90;;;3.50;;
68989;SDS011;56046;47.270;11.368;2023-07-09T09:55:01;8.20;;;4.30;;
68989;SDS011;56046;47.270;11.368;2023-07-09T09:57:27;8.27;;;3.65;;
68989;SDS011;56046;47.270;11.368;2023-07-09T09:59:54;6.87;;;4.10;;
68989;SDS011;56046;47.270;11.368;2023-07-09T10:02:20;7.57;;;4.05;;
68989;SDS011;56046;47.270;11.368;2023-07-09T10:04:46;7.50;;;3.67;;
68989;SDS011;56046;47.270;11.368;2023-07-09T10:07:22;6.55;;;3.40;;
68989;SDS011;56046;47.270;11.368;2023-07-09T10:09:52;6.90;;;3.97;;
68989;SDS011;56046;47.270;11.368;2023-07-09T10:12:25;7.80;;;3.80;;
68989;SDS011;56046;47.270;11.368;2023-07-09T10:17:34;7.22;;;3.25;;
68989;SDS011;56046;47.270;11.368;2023-07-09T10:22:40;8.23;;;3.70;;
68989;SDS011;56046;47.270;11.368;2023-07-09T10:27:47;9.57;;;3.77;;
68989;SDS011;56046;47.270;11.368;2023-07-09T10:33:10;8.10;;;3.25;;
68989;SDS011;56046;47.270;11.368;2023-07-09T10:35:37;7.30;;;3.75;;
68989;SDS011;56046;47.270;11.368;2023-07-09T10:40:33;6.60;;;3.67;;
68989;SDS011;56046;47.270;11.368;2023-07-09T10:43:01;8.50;;;3.47;;
68989;SDS011;56046;47.270;11.368;2023-07-09T10:45:28;7.18;;;3.97;;
68989;SDS011;56046;47.270;11.368;2023-07-09T10:48:14;7.23;;;3.33;;
68989;SDS011;56046;47.270;11.368;2023-07-09T10:50:42;6.72;;;3.47;;
68989;SDS011;56046;47.270;11.368;2023-07-09T10:53:29;7.35;;;3.70;;
68989;SDS011;56046;47.270;11.368;2023-07-09T10:58:27;5.80;;;2.92;;
68989;SDS011;56046;47.270;11.368;2023-07-09T11:00:53;8.90;;;3.10;;
68989;SDS011;56046;47.270;11.368;2023-07-09T11:03:19;5.27;;;3.07;;
68989;SDS011;56046;47.270;11.368;2023-07-09T11:05:46;5.78;;;3.00;;
68989;SDS011;56046;47.270;11.368;2023-07-09T11:08:14;5.78;;;2.92;;
68989;SDS011;56046;47.270;11.368;2023-07-09T11:10:48;6.97;;;3.20;;
68989;SDS011;56046;47.270;11.368;2023-07-09T11:13:17;6.17;;;3.23;;
68989;SDS011;56046;47.270;11.368;2023-07-09T11:15:45;6.57;;;3.13;;
68989;SDS011;56046;47.270;11.368;2023-07-09T11:18:21;5.65;;;3.50;;
68989;SDS011;56046;47.270;11.368;2023-07-09T11:20:47;6.22;;;3.17;;
68989;SDS011;56046;47.270;11.368;2023-07-09T11:23:23;5.50;;;3.47;;
68989;SDS011;56046;47.270;11.368;2023-07-09T11:26:02;8.52;;;3.42;;
68989;SDS011;56046;47.270;11.368;2023-07-09T11:28:34;7.20;;;4.22;;
68989;SDS011;56046;47.270;11.368;2023-07-09T11:31:06;5.55;;;2.88;;
68989;SDS011;56046;47.270;11.368;2023-07-09T11:33:32;8.90;;;4.18;;
68989;SDS011;56046;47.270;11.368;2023-07-09T11:36:11;6.37;;;3.07;;
68989;SDS011;56046;47.270;11.368;2023-07-09T11:38:43;6.03;;;2.73;;
68989;SDS011;56046;47.270;11.368;2023-07-09T11:43:49;8.07;;;3.72;;
68989;SDS011;56046;47.270;11.368;2023-07-09T11:46:17;5.80;;;2.90;;
68989;SDS011;56046;47.270;11.368;2023-07-09T11:48:43;5.70;;;3.08;;
68989;SDS011;56046;47.270;11.368;2023-07-09T11:51:18;7.45;;;3.50;;
68989;SDS011;56046;47.270;11.368;2023-07-09T11:56:11;6.30;;;2.93;;
68989;SDS011;56046;47.270;11.368;2023-07-09T11:58:36;7.03;;;4.03;;
68989;SDS011;56046;47.270;11.368;2023-07-09T12:01:01;5.70;;;3.70;;
68989;SDS011;56046;47.270;11.368;2023-07-09T12:05:59;7.33;;;3.10;;
68989;SDS011;56046;47.270;11.368;2023-07-09T12:08:28;6.07;;;3.50;;
68989;SDS011;56046;47.270;11.368;2023-07-09T12:10:54;7.00;;;2.60;;
68989;SDS011;56046;47.270;11.368;2023-07-09T12:13:19;5.50;;;3.27;;
68989;SDS011;56046;47.270;11.368;2023-07-09T12:15:44;7.93;;;3.40;;
68989;SDS011;56046;47.270;11.368;2023-07-09T12:18:11;6.63;;;3.57;;
68989;SDS011;56046;47.270;11.368;2023-07-09T12:20:36;5.82;;;2.45;;
68989;SDS011;56046;47.270;11.368;2023-07-09T12:25:49;6.68;;;2.95;;
68989;SDS011;56046;47.270;11.368;2023-07-09T12:28:15;5.70;;;2.50;;
68989;SDS011;56046;47.270;11.368;2023-07-09T12:30:44;6.93;;;3.27;;
68989;SDS011;56046;47.270;11.368;2023-07-09T12:33:12;6.40;;;3.20;;
68989;SDS011;56046;47.270;11.368;2023-07-09T12:35:40;7.18;;;2.42;;
68989;SDS011;56046;47.270;11.368;2023-07-09T12:38:11;6.37;;;3.07;;
68989;SDS011;56046;47.270;11.368;2023-07-09T12:40:41;5.57;;;2.95;;
68989;SDS011;56046;47.270;11.368;2023-07-09T12:43:07;6.32;;;3.20;;
68989;SDS011;56046;47.270;11.368;2023-07-09T12:45:34;5.23;;;3.57;;
68989;SDS011;56046;47.270;11.368;2023-07-09T12:47:59;6.10;;;3.60;;
68989;SDS011;56046;47.270;11.368;2023-07-09T12:50:34;6.17;;;3.57;;
68989;SDS011;56046;47.270;11.368;2023-07-09T12:53:01;5.70;;;3.20;;
68989;SDS011;56046;47.270;11.368;2023-07-09T12:55:27;6.35;;;3.20;;
68989;SDS011;56046;47.270;11.368;2023-07-09T12:57:56;6.67;;;3.57;;
68989;SDS011;56046;47.270;11.368;2023-07-09T13:00:21;6.67;;;3.73;;
68989;SDS011;56046;47.270;11.368;2023-07-09T13:02:51;5.68;;;2.83;;
68989;SDS011;56046;47.270;11.368;2023-07-09T13:05:21;6.35;;;3.03;;
68989;SDS011;56046;47.270;11.368;2023-07-09T13:07:49;5.57;;;3.55;;
68989;SDS011;56046;47.270;11.368;2023-07-09T13:10:16;7.63;;;3.75;;
68989;SDS011;56046;47.270;11.368;2023-07-09T13:12:44;5.70;;;3.07;;
68989;SDS011;56046;47.270;11.368;2023-07-09T13:15:23;6.13;;;3.23;;
68989;SDS011;56046;47.270;11.368;2023-07-09T13:17:48;6.07;;;2.85;;
68989;SDS011;56046;47.270;11.368;2023-07-09T13:20:14;5.30;;;3.20;;
68989;SDS011;56046;47.270;11.368;2023-07-09T13:22:39;6.28;;;3.45;;
68989;SDS011;56046;47.270;11.368;2023-07-09T13:25:07;7.80;;;3.43;;
68989;SDS011;56046;47.270;11.368;2023-07-09T13:27:32;6.78;;;3.45;;
68989;SDS011;56046;47.270;11.368;2023-07-09T13:29:57;5.53;;;2.97;;
68989;SDS011;56046;47.270;11.368;2023-07-09T13:32:23;5.85;;;2.47;;
68989;SDS011;56046;47.270;11.368;2023-07-09T13:34:48;5.80;;;3.50;;
68989;SDS011;56046;47.270;11.368;2023-07-09T13:37:14;7.00;;;3.73;;
68989;SDS011;56046;47.270;11.368;2023-07-09T13:39:40;6.65;;;3.80;;
68989;SDS011;56046;47.270;11.368;2023-07-09T13:42:08;6.63;;;3.50;;
68989;SDS011;56046;47.270;11.368;2023-07-09T13:44:35;7.07;;;3.58;;
68989;SDS011;56046;47.270;11.368;2023-07-09T13:47:01;7.28;;;3.60;;
68989;SDS011;56046;47.270;11.368;2023-07-09T13:49:26;5.90;;;3.13;;
68989;SDS011;56046;47.270;11.368;2023-07-09T13:51:53;6.60;;;3.60;;
68989;SDS011;56046;47.270;11.368;2023-07-09T13:54:30;5.03;;;3.28;;
68989;SDS011;56046;47.270;11.368;2023-07-09T13:57:03;5.77;;;2.93;;
68989;SDS011;56046;47.270;11.368;2023-07-09T13:59:29;8.13;;;3.70;;
68989;SDS011;56046;47.270;11.368;2023-07-09T14:01:54;5.63;;;3.05;;
68989;SDS011;56046;47.270;11.368;2023-07-09T14:04:21;5.53;;;2.97;;
68989;SDS011;56046;47.270;11.368;2023-07-09T14:06:46;6.60;;;3.35;;
68989;SDS011;56046;47.270;11.368;2023-07-09T14:09:12;5.73;;;3.30;;
68989;SDS011;56046;47.270;11.368;2023-07-09T14:11:39;6.70;;;2.75;;
68989;SDS011;56046;47.270;11.368;2023-07-09T14:14:19;5.30;;;2.92;;
68989;SDS011;56046;47.270;11.368;2023-07-09T14:16:45;5.38;;;2.90;;
68989;SDS011;56046;47.270;11.368;2023-07-09T14:19:14;7.40;;;3.10;;
68989;SDS011;56046;47.270;11.368;2023-07-09T14:21:39;6.45;;;2.92;;
68989;SDS011;56046;47.270;11.368;2023-07-09T14:24:24;6.13;;;3.30;;
68989;SDS011;56046;47.270;11.368;2023-07-09T14:26:51;5.60;;;3.03;;
68989;SDS011;56046;47.270;11.368;2023-07-09T14:29:16;6.30;;;3.10;;
68989;SDS011;56046;47.270;11.368;2023-07-09T14:31:44;4.97;;;2.70;;
68989;SDS011;56046;47.270;11.368;2023-07-09T14:34:28;5.90;;;2.88;;
68989;SDS011;56046;47.270;11.368;2023-07-09T14:36:54;7.30;;;3.78;;
68989;SDS011;56046;47.270;11.368;2023-07-09T14:39:20;5.75;;;3.10;;
68989;SDS011;56046;47.270;11.368;2023-07-09T14:41:46;6.03;;;2.30;;
68989;SDS011;56046;47.270;11.368;2023-07-09T14:44:19;6.93;;;3.20;;
68989;SDS011;56046;47.270;11.368;2023-07-09T14:46:47;6.00;;;2.78;;
68989;SDS011;56046;47.270;11.368;2023-07-09T14:49:12;5.88;;;3.03;;
68989;SDS011;56046;47.270;11.368;2023-07-09T14:51:38;5.67;;;2.70;;
68989;SDS011;56046;47.270;11.368;2023-07-09T14:54:08;5.40;;;2.90;;
68989;SDS011;56046;47.270;11.368;2023-07-09T14:56:35;7.38;;;2.58;;
68989;SDS011;56046;47.270;11.368;2023-07-09T14:59:01;5.60;;;3.10;;
68989;SDS011;56046;47.270;11.368;2023-07-09T15:01:26;6.00;;;2.83;;
68989;SDS011;56046;47.270;11.368;2023-07-09T15:03:51;6.07;;;2.50;;
68989;SDS011;56046;47.270;11.368;2023-07-09T15:06:17;6.97;;;2.70;;
68989;SDS011;56046;47.270;11.368;2023-07-09T15:08:42;4.93;;;2.20;;